Mr Wayne — WDF5912 — position and weather

sailwx.info

Track history (hours):
 
Tides and Currents Weather Stations Pressure Air Temp Water Temp Dewpoint Dewpoint Depression Visibility Wind Speed Wind Dir Waves Ship Positions

Mr Wayne

Owner: Crosby Marine Transportation LLC, Golden Meadow, LA. More information available from US FCC via Universal Licensing System and Coast Guard Vessel Documentation Center.

Last reported at 2018-Jun-25 05:20 UTC. Time now 2018-Jun-25 07:41 UTC.
Position N 29°47' W 095°06'.

Length 20 m; draft 2.8 m.

Type: Towing. MMSI: 367468610.

Date/timePositionNaut miles runAvg speedWind from/ knotsBaromVisibWave heightAir tempDewpointWater temp
2018-Jun-25 05:20N 29°47' W 095°06'0 0.0
2018-Jun-25 04:48N 29°47' W 095°06'0 0.0
2018-Jun-25 04:13N 29°47' W 095°06'0 0.0
2018-Jun-25 03:14N 29°47' W 095°06'0 0.0
2018-Jun-25 02:57N 29°47' W 095°06'0 0.0
2018-Jun-23 12:53N 29°47' W 095°06'0 0.0
2018-Jun-23 12:21N 29°47' W 095°06'0 0.0
2018-Jun-23 11:58N 29°47' W 095°06'0 0.0
2018-Jun-23 11:29N 29°47' W 095°06'0 0.0
2018-Jun-23 10:55N 29°47' W 095°06'0 0.0
2018-Jun-23 10:11N 29°47' W 095°06'0 0.0
2018-Jun-23 08:46N 29°47' W 095°06'0 0.0
2018-Jun-23 08:28N 29°47' W 095°06'0 0.0
2018-Jun-23 07:56N 29°47' W 095°06'0 0.0
2018-Jun-23 07:28N 29°47' W 095°06'0 0.0
2018-Jun-23 07:00N 29°47' W 095°06'0 0.0
2018-Jun-23 06:30N 29°47' W 095°06'0 0.0
2018-Jun-23 06:00N 29°47' W 095°06'0 0.0
2018-Jun-23 05:30N 29°47' W 095°06'0 0.0
2018-Jun-23 05:00N 29°47' W 095°06'0 0.0
2018-Jun-23 04:30N 29°47' W 095°06'0 0.0
2018-Jun-23 04:00N 29°47' W 095°06'0 0.0
2018-Jun-23 03:30N 29°47' W 095°06'0 0.0
2018-Jun-23 02:50N 29°47' W 095°06'0 0.0
2018-Jun-23 02:30N 29°47' W 095°06'0 0.0
2018-Jun-22 14:27N 29°47' W 095°06'0 0.0
2018-Jun-22 13:54N 29°47' W 095°06'0 0.0
2018-Jun-22 13:24N 29°47' W 095°06'0 0.0
2018-Jun-22 12:54N 29°47' W 095°06'0 0.0
2018-Jun-22 12:30N 29°47' W 095°06'0 0.0
2018-Jun-22 11:52N 29°47' W 095°06'0 0.0
2018-Jun-22 09:39N 29°47' W 095°06'0 0.0
2018-Jun-22 09:21N 29°47' W 095°06'0 0.0
2018-Jun-22 08:40N 29°47' W 095°06'0 0.0
2018-Jun-22 08:30N 29°47' W 095°06'0 0.0
2018-Jun-22 08:00N 29°47' W 095°06'0 0.0
2018-Jun-22 07:29N 29°47' W 095°06'0 0.0
2018-Jun-22 06:56N 29°47' W 095°06'0 0.0
2018-Jun-22 06:30N 29°47' W 095°06'0 0.0
2018-Jun-22 05:59N 29°47' W 095°06'0 0.0
2018-Jun-22 05:30N 29°47' W 095°06'0 0.0
2018-Jun-22 04:57N 29°47' W 095°06'0 0.0
2018-Jun-22 04:30N 29°47' W 095°06'0 0.0
2018-Jun-22 04:00N 29°47' W 095°06'0 0.0
2018-Jun-22 03:30N 29°47' W 095°06'0 0.0
2018-Jun-22 01:57N 29°47' W 095°06'0 0.0
2018-Jun-22 01:02N 29°47' W 095°06'0 0.0
2018-Jun-22 00:52N 29°47' W 095°06'0 0.0
2018-Jun-21 21:33N 29°47' W 095°06'0 0.0
2018-Jun-21 08:52N 29°47' W 095°06'0 0.0
2018-Jun-21 08:08N 29°47' W 095°06'0 0.0
2018-Jun-21 07:56N 29°47' W 095°06'0 0.0
2018-Jun-21 07:29N 29°47' W 095°06'0 0.0
2018-Jun-21 06:05N 29°47' W 095°06'0 0.0
2018-Jun-21 05:53N 29°47' W 095°06'0 0.0
2018-Jun-21 05:27N 29°47' W 095°06'2 0.2
2018-Jun-20 17:28N 29°45' W 095°04'3 6.8
2018-Jun-20 16:58N 29°43' W 095°01'3 6.8
2018-Jun-20 16:30N 29°41' W 094°59'4 7.2
2018-Jun-20 15:59N 29°37' W 094°57'11 7.1
2018-Jun-20 14:27N 29°28' W 094°51'3 7.0
2018-Jun-20 13:58N 29°25' W 094°49'3 7.3
2018-Jun-20 13:30N 29°22' W 094°48'2 2.2
2018-Jun-20 12:25N 29°20' W 094°46'2 4.2
2018-Jun-20 11:59N 29°19' W 094°48'1 0.1
2018-Jun-20 03:14N 29°19' W 094°49'0 0.1
2018-Jun-20 03:00N 29°19' W 094°49'0 0.0
2018-Jun-20 02:30N 29°19' W 094°49'0 0.1
2018-Jun-20 02:00N 29°19' W 094°49'0 0.0
2018-Jun-20 01:30N 29°19' W 094°49'0 0.0
2018-Jun-20 01:00N 29°19' W 094°49'0 0.0
2018-Jun-20 00:30N 29°19' W 094°49'0 0.0
2018-Jun-20 00:00N 29°19' W 094°49'0 0.0
2018-Jun-19 23:30N 29°19' W 094°49'0 0.0
2018-Jun-19 23:00N 29°19' W 094°49'2 4.1
2018-Jun-19 22:30N 29°20' W 094°47'4 7.2
2018-Jun-19 22:00N 29°23' W 094°49'3 6.4
2018-Jun-19 21:28N 29°26' W 094°50'3 5.7
2018-Jun-19 20:55N 29°29' W 094°52'3 5.5
2018-Jun-19 20:26N 29°31' W 094°53'3 5.6
2018-Jun-19 19:59N 29°33' W 094°55'3 5.8
2018-Jun-19 19:29N 29°36' W 094°57'3 5.7
2018-Jun-19 19:00N 29°38' W 094°58'3 6.4
2018-Jun-19 18:30N 29°41' W 094°59'  
Track history (hours):
 
Tides and Currents Weather Stations Pressure Air Temp Water Temp Dewpoint Dewpoint Depression Visibility Wind Speed Wind Dir Waves Ship Positions

Mr Wayne

Owner: Crosby Marine Transportation LLC, Golden Meadow, LA. More information available from US FCC via Universal Licensing System and Coast Guard Vessel Documentation Center.

Last reported at 2018-Jun-25 05:20 UTC. Time now 2018-Jun-25 07:41 UTC.
Position N 29°47' W 095°06'.

Length 20 m; draft 2.8 m.

Type: Towing. MMSI: 367468610.

Date/timePositionNaut miles runAvg speedWind from/ knotsBaromVisibWave heightAir tempDewpointWater temp
2018-Jun-25 05:20N 29°47' W 095°06'0 0.0
2018-Jun-25 04:48N 29°47' W 095°06'0 0.0
2018-Jun-25 04:13N 29°47' W 095°06'0 0.0
2018-Jun-25 03:14N 29°47' W 095°06'0 0.0
2018-Jun-25 02:57N 29°47' W 095°06'0 0.0
2018-Jun-23 12:53N 29°47' W 095°06'0 0.0
2018-Jun-23 12:21N 29°47' W 095°06'0 0.0
2018-Jun-23 11:58N 29°47' W 095°06'0 0.0
2018-Jun-23 11:29N 29°47' W 095°06'0 0.0
2018-Jun-23 10:55N 29°47' W 095°06'0 0.0
2018-Jun-23 10:11N 29°47' W 095°06'0 0.0
2018-Jun-23 08:46N 29°47' W 095°06'0 0.0
2018-Jun-23 08:28N 29°47' W 095°06'0 0.0
2018-Jun-23 07:56N 29°47' W 095°06'0 0.0
2018-Jun-23 07:28N 29°47' W 095°06'0 0.0
2018-Jun-23 07:00N 29°47' W 095°06'0 0.0
2018-Jun-23 06:30N 29°47' W 095°06'0 0.0
2018-Jun-23 06:00N 29°47' W 095°06'0 0.0
2018-Jun-23 05:30N 29°47' W 095°06'0 0.0
2018-Jun-23 05:00N 29°47' W 095°06'0 0.0
2018-Jun-23 04:30N 29°47' W 095°06'0 0.0
2018-Jun-23 04:00N 29°47' W 095°06'0 0.0
2018-Jun-23 03:30N 29°47' W 095°06'0 0.0
2018-Jun-23 02:50N 29°47' W 095°06'0 0.0
2018-Jun-23 02:30N 29°47' W 095°06'0 0.0
2018-Jun-22 14:27N 29°47' W 095°06'0 0.0
2018-Jun-22 13:54N 29°47' W 095°06'0 0.0
2018-Jun-22 13:24N 29°47' W 095°06'0 0.0
2018-Jun-22 12:54N 29°47' W 095°06'0 0.0
2018-Jun-22 12:30N 29°47' W 095°06'0 0.0
2018-Jun-22 11:52N 29°47' W 095°06'0 0.0
2018-Jun-22 09:39N 29°47' W 095°06'0 0.0
2018-Jun-22 09:21N 29°47' W 095°06'0 0.0
2018-Jun-22 08:40N 29°47' W 095°06'0 0.0
2018-Jun-22 08:30N 29°47' W 095°06'0 0.0
2018-Jun-22 08:00N 29°47' W 095°06'0 0.0
2018-Jun-22 07:29N 29°47' W 095°06'0 0.0
2018-Jun-22 06:56N 29°47' W 095°06'0 0.0
2018-Jun-22 06:30N 29°47' W 095°06'0 0.0
2018-Jun-22 05:59N 29°47' W 095°06'0 0.0
2018-Jun-22 05:30N 29°47' W 095°06'0 0.0
2018-Jun-22 04:57N 29°47' W 095°06'0 0.0
2018-Jun-22 04:30N 29°47' W 095°06'0 0.0
2018-Jun-22 04:00N 29°47' W 095°06'0 0.0
2018-Jun-22 03:30N 29°47' W 095°06'0 0.0
2018-Jun-22 01:57N 29°47' W 095°06'0 0.0
2018-Jun-22 01:02N 29°47' W 095°06'0 0.0
2018-Jun-22 00:52N 29°47' W 095°06'0 0.0
2018-Jun-21 21:33N 29°47' W 095°06'0 0.0
2018-Jun-21 08:52N 29°47' W 095°06'0 0.0
2018-Jun-21 08:08N 29°47' W 095°06'0 0.0
2018-Jun-21 07:56N 29°47' W 095°06'0 0.0
2018-Jun-21 07:29N 29°47' W 095°06'0 0.0
2018-Jun-21 06:05N 29°47' W 095°06'0 0.0
2018-Jun-21 05:53N 29°47' W 095°06'0 0.0
2018-Jun-21 05:27N 29°47' W 095°06'2 0.2
2018-Jun-20 17:28N 29°45' W 095°04'3 6.8
2018-Jun-20 16:58N 29°43' W 095°01'3 6.8
2018-Jun-20 16:30N 29°41' W 094°59'4 7.2
2018-Jun-20 15:59N 29°37' W 094°57'11 7.1
2018-Jun-20 14:27N 29°28' W 094°51'3 7.0
2018-Jun-20 13:58N 29°25' W 094°49'3 7.3
2018-Jun-20 13:30N 29°22' W 094°48'2 2.2
2018-Jun-20 12:25N 29°20' W 094°46'2 4.2
2018-Jun-20 11:59N 29°19' W 094°48'1 0.1
2018-Jun-20 03:14N 29°19' W 094°49'0 0.1
2018-Jun-20 03:00N 29°19' W 094°49'0 0.0
2018-Jun-20 02:30N 29°19' W 094°49'0 0.1
2018-Jun-20 02:00N 29°19' W 094°49'0 0.0
2018-Jun-20 01:30N 29°19' W 094°49'0 0.0
2018-Jun-20 01:00N 29°19' W 094°49'0 0.0
2018-Jun-20 00:30N 29°19' W 094°49'0 0.0
2018-Jun-20 00:00N 29°19' W 094°49'0 0.0
2018-Jun-19 23:30N 29°19' W 094°49'0 0.0
2018-Jun-19 23:00N 29°19' W 094°49'2 4.1
2018-Jun-19 22:30N 29°20' W 094°47'4 7.2
2018-Jun-19 22:00N 29°23' W 094°49'3 6.4
2018-Jun-19 21:28N 29°26' W 094°50'3 5.7
2018-Jun-19 20:55N 29°29' W 094°52'3 5.5
2018-Jun-19 20:26N 29°31' W 094°53'3 5.6
2018-Jun-19 19:59N 29°33' W 094°55'3 5.8
2018-Jun-19 19:29N 29°36' W 094°57'3 5.7
2018-Jun-19 19:00N 29°38' W 094°58'3 6.4
2018-Jun-19 18:30N 29°41' W 094°59'  

Dump ship's entire track history